createdAt,value
2018-09-09T00:00:09.771Z,13.48
2018-09-09T00:02:38.214Z,13.34
2018-09-09T00:05:06.635Z,13.36
2018-09-09T00:07:34.991Z,13.41
2018-09-09T00:10:03.549Z,13.39
2018-09-09T00:12:31.891Z,13.34
2018-09-09T00:15:00.303Z,13.36
2018-09-09T00:17:28.719Z,13.37
2018-09-09T00:19:57.103Z,13.29
2018-09-09T00:22:25.471Z,13.30
2018-09-09T00:24:53.903Z,13.30
2018-09-09T00:27:22.296Z,13.28
2018-09-09T00:29:50.665Z,13.17
2018-09-09T00:32:19.165Z,13.20
2018-09-09T00:34:47.514Z,13.24
2018-09-09T00:37:15.886Z,13.24
2018-09-09T00:39:44.281Z,13.28
2018-09-09T00:42:12.604Z,13.34
2018-09-09T00:44:41.037Z,13.23
2018-09-09T00:47:09.355Z,13.12
2018-09-09T00:49:42.825Z,13.15
2018-09-09T00:52:16.548Z,13.12
2018-09-09T00:54:44.960Z,13.10
2018-09-09T00:57:13.295Z,12.96
2018-09-09T00:59:41.743Z,12.85
2018-09-09T01:02:10.120Z,12.92
2018-09-09T01:04:38.450Z,13.11
2018-09-09T01:07:06.797Z,13.10
2018-09-09T01:09:35.192Z,13.13
2018-09-09T01:12:04.676Z,13.10
2018-09-09T01:14:33.834Z,13.11
2018-09-09T01:17:02.178Z,12.92
2018-09-09T01:19:30.674Z,12.94
2018-09-09T01:21:59.213Z,12.91
2018-09-09T01:24:27.535Z,12.85
2018-09-09T01:26:55.932Z,12.76
2018-09-09T01:29:24.355Z,12.71
2018-09-09T01:31:52.649Z,12.67
2018-09-09T01:34:21.026Z,12.98
2018-09-09T01:36:49.632Z,13.09
2018-09-09T01:39:17.992Z,12.93
2018-09-09T01:41:46.355Z,12.90
2018-09-09T01:44:14.775Z,12.91
2018-09-09T01:46:43.075Z,12.92
2018-09-09T01:49:11.582Z,12.93
2018-09-09T01:51:39.910Z,13.18
2018-09-09T01:54:08.209Z,13.20
2018-09-09T01:56:36.582Z,13.19
2018-09-09T01:59:04.959Z,13.13
2018-09-09T02:01:33.324Z,13.02
2018-09-09T02:04:01.768Z,12.76
2018-09-09T02:06:30.088Z,12.76
2018-09-09T02:08:58.442Z,12.65
2018-09-09T02:11:26.755Z,12.74
2018-09-09T02:13:55.140Z,12.82
2018-09-09T02:16:23.700Z,12.88
2018-09-09T02:18:52.071Z,12.87
2018-09-09T02:21:20.402Z,12.91
2018-09-09T02:23:48.771Z,12.85
2018-09-09T02:26:17.126Z,12.86
2018-09-09T02:28:45.478Z,12.82
2018-09-09T02:31:13.842Z,12.82
2018-09-09T02:33:42.411Z,12.77
2018-09-09T02:36:10.836Z,12.69
2018-09-09T02:38:39.211Z,12.61
2018-09-09T02:41:07.649Z,12.72
2018-09-09T02:43:36.139Z,12.80
2018-09-09T02:46:04.699Z,12.78
2018-09-09T02:48:33.108Z,12.79
2018-09-09T02:51:01.629Z,12.78
2018-09-09T02:53:30.001Z,12.42
2018-09-09T02:55:58.364Z,12.49
2018-09-09T02:58:26.717Z,12.54
2018-09-09T03:00:55.061Z,12.61
2018-09-09T03:03:23.440Z,12.45
2018-09-09T03:05:51.858Z,12.40
2018-09-09T03:08:20.202Z,12.27
2018-09-09T03:10:52.766Z,12.41
2018-09-09T03:13:21.138Z,12.59
2018-09-09T03:15:49.546Z,12.64
2018-09-09T03:18:17.902Z,12.63
2018-09-09T03:20:46.313Z,12.71
2018-09-09T03:23:14.664Z,12.70
2018-09-09T03:25:43.052Z,12.62
2018-09-09T03:28:11.404Z,12.64
2018-09-09T03:30:39.804Z,12.63
2018-09-09T03:33:08.190Z,12.63
2018-09-09T03:35:36.718Z,12.60
2018-09-09T03:38:05.026Z,12.65
2018-09-09T03:40:33.622Z,12.75
2018-09-09T03:43:01.920Z,12.77
2018-09-09T03:45:30.239Z,12.71
2018-09-09T03:47:58.719Z,12.38
2018-09-09T03:50:27.027Z,12.53
2018-09-09T03:52:55.373Z,12.67
2018-09-09T03:55:23.655Z,12.55
2018-09-09T03:57:52.008Z,12.52
2018-09-09T04:00:20.311Z,12.51
2018-09-09T04:02:48.744Z,12.46
2018-09-09T04:05:17.166Z,12.46
2018-09-09T04:07:45.482Z,12.55
2018-09-09T04:10:14.209Z,12.48
2018-09-09T04:12:42.575Z,12.47
2018-09-09T04:15:10.857Z,12.29
2018-09-09T04:17:39.172Z,12.26
2018-09-09T04:20:08.068Z,12.07
2018-09-09T04:22:36.395Z,12.14
2018-09-09T04:25:04.701Z,12.19
2018-09-09T04:27:33.054Z,12.32
2018-09-09T04:30:01.363Z,12.32
2018-09-09T04:32:29.722Z,12.40
2018-09-09T04:34:58.057Z,12.37
2018-09-09T04:37:26.402Z,12.42
2018-09-09T04:39:54.802Z,12.49
2018-09-09T04:42:23.249Z,12.53
2018-09-09T04:44:51.536Z,12.59
2018-09-09T04:47:19.914Z,12.72
2018-09-09T04:49:48.403Z,12.53
2018-09-09T04:52:16.832Z,12.57
2018-09-09T04:54:45.120Z,12.47
2018-09-09T04:57:13.586Z,12.52
2018-09-09T04:59:41.887Z,12.56
2018-09-09T05:02:10.505Z,12.49
2018-09-09T05:04:38.866Z,12.55
2018-09-09T05:07:07.158Z,12.56
2018-09-09T05:09:35.660Z,12.66
2018-09-09T05:12:04.122Z,12.60
2018-09-09T05:14:32.720Z,12.61
2018-09-09T05:17:01.103Z,12.58
2018-09-09T05:19:29.385Z,12.67
2018-09-09T05:21:57.766Z,12.78
2018-09-09T05:24:26.365Z,12.86
2018-09-09T05:26:54.876Z,12.82
2018-09-09T05:29:27.897Z,12.90
2018-09-09T05:31:56.467Z,12.81
2018-09-09T05:35:27.047Z,12.72
2018-09-09T05:37:55.680Z,12.74
2018-09-09T05:40:24.146Z,12.88
2018-09-09T05:42:53.383Z,12.97
2018-09-09T05:45:36.540Z,13.06
2018-09-09T05:48:04.992Z,13.14
2018-09-09T05:50:34.446Z,13.36
2018-09-09T05:53:04.259Z,13.22
2018-09-09T05:55:33.277Z,13.58
2018-09-09T05:58:02.036Z,13.73
2018-09-09T06:00:30.410Z,13.89
2018-09-09T06:02:58.822Z,14.08
2018-09-09T06:05:27.150Z,14.01
2018-09-09T06:07:56.019Z,13.92
2018-09-09T06:10:24.390Z,13.77
2018-09-09T06:12:52.760Z,13.83
2018-09-09T06:15:21.280Z,13.89
2018-09-09T06:17:49.679Z,13.90
2018-09-09T06:20:18.700Z,13.75
2018-09-09T06:22:54.750Z,13.73
2018-09-09T06:25:40.982Z,13.71
2018-09-09T06:28:10.072Z,13.81
2018-09-09T06:30:38.594Z,14.05
2018-09-09T06:33:07.154Z,14.35
2018-09-09T06:35:35.446Z,14.67
2018-09-09T06:38:03.787Z,14.92
2018-09-09T06:40:32.254Z,14.96
2018-09-09T06:43:00.601Z,15.03
2018-09-09T06:45:29.183Z,15.07
2018-09-09T06:47:58.703Z,15.20
2018-09-09T06:50:33.442Z,15.20
2018-09-09T06:53:06.359Z,15.14
2018-09-09T06:55:47.168Z,15.30
2018-09-09T06:58:34.248Z,15.32
2018-09-09T07:01:13.360Z,15.39
2018-09-09T07:03:55.422Z,15.49
2018-09-09T07:06:30.352Z,15.59
2018-09-09T07:09:07.287Z,15.62
2018-09-09T07:11:44.200Z,15.83
2018-09-09T07:14:20.311Z,15.85
2018-09-09T07:16:57.504Z,15.75
2018-09-09T07:19:33.210Z,15.98
2018-09-09T07:22:09.714Z,16.01
2018-09-09T07:24:38.457Z,16.06
2018-09-09T07:27:06.845Z,16.32
2018-09-09T07:29:35.215Z,16.27
2018-09-09T07:32:03.538Z,16.28
2018-09-09T07:34:31.864Z,16.19
2018-09-09T07:37:00.352Z,16.41
2018-09-09T07:39:28.777Z,16.52
2018-09-09T07:41:57.096Z,16.48
2018-09-09T07:44:25.526Z,16.37
2018-09-09T07:46:53.917Z,16.43
2018-09-09T07:49:22.322Z,16.45
2018-09-09T07:51:51.064Z,16.66
2018-09-09T07:54:20.366Z,16.82
2018-09-09T07:56:48.662Z,17.04
2018-09-09T07:59:17.566Z,17.26
2018-09-09T08:01:45.959Z,17.48
2018-09-09T08:04:14.448Z,17.57
2018-09-09T08:06:42.723Z,17.77
2018-09-09T08:09:11.703Z,17.80
2018-09-09T08:11:40.379Z,18.03
2018-09-09T08:14:10.107Z,18.03
2018-09-09T08:16:38.529Z,18.13
2018-09-09T08:19:07.036Z,18.11
2018-09-09T08:21:35.617Z,18.12
2018-09-09T08:24:03.994Z,18.31
2018-09-09T08:26:32.314Z,18.32
2018-09-09T08:29:00.603Z,18.40
2018-09-09T08:31:28.975Z,18.06
2018-09-09T08:33:57.329Z,18.09
2018-09-09T08:36:25.663Z,18.07
2018-09-09T08:38:54.177Z,18.12
2018-09-09T08:41:22.473Z,18.10
2018-09-09T08:43:50.791Z,18.11
2018-09-09T08:46:19.084Z,18.11
2018-09-09T08:48:47.571Z,18.23
2018-09-09T08:51:15.924Z,18.29
2018-09-09T08:53:45.439Z,18.27
2018-09-09T08:56:14.063Z,18.53
2018-09-09T08:58:42.449Z,18.51
2018-09-09T09:01:10.910Z,18.30
2018-09-09T09:03:39.310Z,18.27
2018-09-09T09:06:07.639Z,18.33
2018-09-09T09:08:35.987Z,18.37
2018-09-09T09:11:04.485Z,18.37
2018-09-09T09:13:32.946Z,18.15
2018-09-09T09:16:01.479Z,18.24
2018-09-09T09:18:29.986Z,18.42
2018-09-09T09:20:58.442Z,18.56
2018-09-09T09:23:26.818Z,18.65
2018-09-09T09:25:55.432Z,18.78
2018-09-09T09:28:24.474Z,18.82
2018-09-09T09:30:53.607Z,18.70
2018-09-09T09:33:22.016Z,18.84
2018-09-09T09:35:51.705Z,19.12
2018-09-09T09:38:21.459Z,19.19
2018-09-09T09:40:50.289Z,19.26
2018-09-09T09:43:18.562Z,19.21
2018-09-09T09:45:46.976Z,19.24
2018-09-09T09:48:15.390Z,19.47
2018-09-09T09:50:43.851Z,19.74
2018-09-09T09:53:12.223Z,19.45
2018-09-09T09:55:40.615Z,19.52
2018-09-09T09:58:08.965Z,19.30
2018-09-09T10:00:42.590Z,19.27
2018-09-09T10:03:10.908Z,19.10
2018-09-09T10:05:39.518Z,19.08
2018-09-09T10:08:07.903Z,19.23
2018-09-09T10:10:36.210Z,19.22
2018-09-09T10:13:04.570Z,19.24
2018-09-09T10:15:33.190Z,19.25
2018-09-09T10:18:01.708Z,19.17
2018-09-09T10:20:30.222Z,19.09
2018-09-09T10:22:58.514Z,19.10
2018-09-09T10:25:26.818Z,19.26
2018-09-09T10:27:56.230Z,19.41
2018-09-09T10:30:24.535Z,19.67
2018-09-09T10:32:52.835Z,19.61
2018-09-09T10:35:21.723Z,19.58
2018-09-09T10:37:49.999Z,19.42
2018-09-09T10:40:18.520Z,19.64
2018-09-09T10:42:47.491Z,19.79
2018-09-09T10:45:15.950Z,19.79
2018-09-09T10:47:44.248Z,19.79
2018-09-09T10:50:12.653Z,19.93
2018-09-09T10:52:40.998Z,20.17
2018-09-09T10:55:09.328Z,20.31
2018-09-09T10:57:37.665Z,20.23
2018-09-09T11:00:06.386Z,20.19
2018-09-09T11:02:34.754Z,20.30
2018-09-09T11:05:03.145Z,20.43
2018-09-09T11:07:32.462Z,20.40
2018-09-09T11:10:00.787Z,20.24
2018-09-09T11:12:30.030Z,20.43
2018-09-09T11:14:59.776Z,20.28
2018-09-09T11:17:28.770Z,20.58
2018-09-09T11:19:58.053Z,20.85
2018-09-09T11:22:27.031Z,20.70
2018-09-09T11:24:55.294Z,20.68
2018-09-09T11:27:24.297Z,20.70
2018-09-09T11:29:52.602Z,20.91
2018-09-09T11:32:20.881Z,20.93
2018-09-09T11:34:49.158Z,21.07
2018-09-09T11:37:17.519Z,20.70
2018-09-09T11:39:46.010Z,20.69
2018-09-09T11:42:14.351Z,20.75
2018-09-09T11:44:42.872Z,20.72
2018-09-09T11:47:11.159Z,20.34
2018-09-09T11:49:39.446Z,20.97
2018-09-09T11:52:07.834Z,20.86
2018-09-09T11:54:36.718Z,20.91
2018-09-09T11:57:05.938Z,20.95
2018-09-09T11:59:34.969Z,20.70
2018-09-09T12:02:04.114Z,21.01
2018-09-09T12:04:33.469Z,21.00
2018-09-09T12:07:03.027Z,21.18
2018-09-09T12:09:31.522Z,21.36
2018-09-09T12:11:59.833Z,21.06
2018-09-09T12:14:28.193Z,21.03
2018-09-09T12:16:56.565Z,21.04
2018-09-09T12:19:24.875Z,20.98
2018-09-09T12:21:53.309Z,21.06
2018-09-09T12:24:21.677Z,20.96
2018-09-09T12:26:50.019Z,20.87
2018-09-09T12:29:18.361Z,20.82
2018-09-09T12:31:46.723Z,20.93
2018-09-09T12:34:15.103Z,20.85
2018-09-09T12:36:43.847Z,20.89
2018-09-09T12:39:12.208Z,20.95
2018-09-09T12:41:40.547Z,21.20
2018-09-09T12:44:14.514Z,21.21
2018-09-09T12:46:48.259Z,21.39
2018-09-09T12:49:16.644Z,21.42
2018-09-09T12:51:44.971Z,21.42
2018-09-09T12:54:13.290Z,21.47
2018-09-09T12:56:42.241Z,21.66
2018-09-09T12:59:10.825Z,21.58
2018-09-09T13:01:39.750Z,21.56
2018-09-09T13:04:08.337Z,21.45
2018-09-09T13:06:36.709Z,21.52
2018-09-09T13:09:07.524Z,21.36
2018-09-09T13:11:36.079Z,21.65
2018-09-09T13:14:04.593Z,21.74
2018-09-09T13:16:34.107Z,21.60
2018-09-09T13:19:02.785Z,21.50
2018-09-09T13:21:31.077Z,21.51
2018-09-09T13:23:59.532Z,21.71
2018-09-09T13:26:27.846Z,21.56
2018-09-09T13:28:56.267Z,21.41
2018-09-09T13:31:25.010Z,21.53
2018-09-09T13:33:53.470Z,21.28
2018-09-09T13:36:22.035Z,21.38
2018-09-09T13:38:50.753Z,21.13
2018-09-09T13:41:19.464Z,21.14
2018-09-09T13:43:48.004Z,21.27
2018-09-09T13:46:16.359Z,21.28
2018-09-09T13:48:44.750Z,21.35
2018-09-09T13:51:13.145Z,21.24
2018-09-09T13:53:41.478Z,21.26
2018-09-09T13:56:09.861Z,21.54
2018-09-09T13:58:38.670Z,21.68
2018-09-09T14:01:07.290Z,21.42
2018-09-09T14:03:35.606Z,21.33
2018-09-09T14:06:03.914Z,21.50
2018-09-09T14:08:32.295Z,21.54
2018-09-09T14:11:00.599Z,21.72
2018-09-09T14:13:29.055Z,21.88
2018-09-09T14:15:57.648Z,21.78
2018-09-09T14:18:26.011Z,21.56
2018-09-09T14:21:00.687Z,21.83
2018-09-09T14:23:28.986Z,21.88
2018-09-09T14:25:57.300Z,21.74
2018-09-09T14:28:25.726Z,21.80
2018-09-09T14:30:54.269Z,21.82
2018-09-09T14:33:22.615Z,21.85
2018-09-09T14:35:52.043Z,21.95
2018-09-09T14:38:20.435Z,22.09
2018-09-09T14:40:48.929Z,22.10
2018-09-09T14:43:17.313Z,22.60
2018-09-09T14:45:45.675Z,22.26
2018-09-09T14:48:14.093Z,22.28
2018-09-09T14:50:42.547Z,22.09
2018-09-09T14:53:11.015Z,22.17
2018-09-09T14:55:39.331Z,22.20
2018-09-09T14:58:07.871Z,22.13
2018-09-09T15:00:36.292Z,22.09
2018-09-09T15:03:04.739Z,22.15
2018-09-09T15:05:33.067Z,22.20
2018-09-09T15:08:01.435Z,22.16
2018-09-09T15:10:29.803Z,22.26
2018-09-09T15:12:58.584Z,22.28
2018-09-09T15:15:26.914Z,22.16
2018-09-09T15:17:55.282Z,22.17
2018-09-09T15:20:23.614Z,22.24
2018-09-09T15:22:52.079Z,22.16
2018-09-09T15:25:20.487Z,22.24
2018-09-09T15:27:49.464Z,22.12
2018-09-09T15:30:18.621Z,22.20
2018-09-09T15:32:47.019Z,22.26
2018-09-09T15:35:15.405Z,22.17
2018-09-09T15:37:43.839Z,22.13
2018-09-09T15:40:12.402Z,22.15
2018-09-09T15:42:40.824Z,22.11
2018-09-09T15:45:09.132Z,22.05
2018-09-09T15:47:37.592Z,22.01
2018-09-09T15:50:06.324Z,21.93
2018-09-09T15:52:34.679Z,22.03
2018-09-09T15:55:03.439Z,21.91
2018-09-09T15:57:32.113Z,21.76
2018-09-09T16:00:00.625Z,21.73
2018-09-09T16:02:29.281Z,21.81
2018-09-09T16:04:57.687Z,21.76
2018-09-09T16:07:26.155Z,21.59
2018-09-09T16:09:54.546Z,21.40
2018-09-09T16:12:23.079Z,21.24
2018-09-09T16:14:51.678Z,21.20
2018-09-09T16:17:20.144Z,21.18
2018-09-09T16:19:48.781Z,21.23
2018-09-09T16:22:17.217Z,21.09
2018-09-09T16:24:45.854Z,20.83
2018-09-09T16:27:14.326Z,20.68
2018-09-09T16:29:42.671Z,20.43
2018-09-09T16:32:11.234Z,20.30
2018-09-09T16:34:39.747Z,20.24
2018-09-09T16:37:08.242Z,20.20
2018-09-09T16:39:36.637Z,20.07
2018-09-09T16:42:05.049Z,20.02
2018-09-09T16:44:34.197Z,19.85
2018-09-09T16:47:02.626Z,19.74
2018-09-09T16:49:31.399Z,19.64
2018-09-09T16:51:59.713Z,19.63
2018-09-09T16:54:28.131Z,19.75
2018-09-09T16:56:56.498Z,19.61
2018-09-09T16:59:24.854Z,19.47
2018-09-09T17:01:53.282Z,19.39
2018-09-09T17:04:21.656Z,19.31
2018-09-09T17:06:50.061Z,19.22
2018-09-09T17:09:18.551Z,19.10
2018-09-09T17:11:46.867Z,19.00
2018-09-09T17:14:16.036Z,18.84
2018-09-09T17:16:44.895Z,18.67
2018-09-09T17:19:13.573Z,18.48
2018-09-09T17:21:43.115Z,18.38
2018-09-09T17:24:11.549Z,18.21
2018-09-09T17:26:39.854Z,18.23
2018-09-09T17:29:08.284Z,18.08
2018-09-09T17:31:36.658Z,17.93
2018-09-09T17:34:05.253Z,17.84
2018-09-09T17:36:33.783Z,17.56
2018-09-09T17:39:02.167Z,17.65
2018-09-09T17:41:30.534Z,17.66
2018-09-09T17:43:59.008Z,17.42
2018-09-09T17:46:27.454Z,17.22
2018-09-09T17:48:55.937Z,17.15
2018-09-09T17:51:25.276Z,17.09
2018-09-09T17:53:54.529Z,17.09
2018-09-09T17:56:23.888Z,17.01
2018-09-09T17:58:52.573Z,16.91
2018-09-09T18:01:20.991Z,16.92
2018-09-09T18:03:49.438Z,16.93
2018-09-09T18:06:17.882Z,16.84
2018-09-09T18:08:46.730Z,16.80
2018-09-09T18:11:15.181Z,16.54
2018-09-09T18:13:43.790Z,16.47
2018-09-09T18:16:12.160Z,16.44
2018-09-09T18:18:40.504Z,16.48
2018-09-09T18:21:09.093Z,16.60
2018-09-09T18:23:37.644Z,16.61
2018-09-09T18:26:06.451Z,16.59
2018-09-09T18:28:34.898Z,16.53
2018-09-09T18:31:04.078Z,16.43
2018-09-09T18:33:32.910Z,16.32
2018-09-09T18:36:01.359Z,16.25
2018-09-09T18:38:30.295Z,16.27
2018-09-09T18:40:58.643Z,16.34
2018-09-09T18:43:27.275Z,16.27
2018-09-09T18:45:55.699Z,16.23
2018-09-09T18:48:25.258Z,16.23
2018-09-09T18:50:53.664Z,15.88
2018-09-09T18:53:22.546Z,15.36
2018-09-09T18:56:53.671Z,15.49
2018-09-09T18:59:22.575Z,15.33
2018-09-09T19:01:51.063Z,15.38
2018-09-09T19:04:19.560Z,15.31
2018-09-09T19:06:47.918Z,15.28
2018-09-09T19:09:16.313Z,15.33
2018-09-09T19:11:44.700Z,15.10
2018-09-09T19:14:13.095Z,15.00
2018-09-09T19:16:41.798Z,15.07
2018-09-09T19:19:10.434Z,15.12
2018-09-09T19:21:38.766Z,15.18
2018-09-09T19:24:06.800Z,15.03
2018-09-09T19:26:35.225Z,14.98
2018-09-09T19:29:04.311Z,15.01
2018-09-09T19:31:32.755Z,14.92
2018-09-09T19:34:01.426Z,14.59
2018-09-09T19:36:29.904Z,14.52
2018-09-09T19:38:58.276Z,14.47
2018-09-09T19:41:27.389Z,14.49
2018-09-09T19:43:55.922Z,14.60
2018-09-09T19:46:24.259Z,14.57
2018-09-09T19:48:53.013Z,14.46
2018-09-09T19:51:21.527Z,14.44
2018-09-09T19:53:52.752Z,14.39
2018-09-09T19:56:21.171Z,14.13
2018-09-09T19:58:50.421Z,14.14
2018-09-09T20:01:18.908Z,14.24
2018-09-09T20:03:47.502Z,14.22
2018-09-09T20:06:15.935Z,14.29
2018-09-09T20:08:44.700Z,14.25
2018-09-09T20:11:13.459Z,14.10
2018-09-09T20:13:41.902Z,13.79
2018-09-09T20:16:10.618Z,13.71
2018-09-09T20:18:39.496Z,13.70
2018-09-09T20:21:08.693Z,13.73
2018-09-09T20:23:37.155Z,13.56
2018-09-09T20:26:05.943Z,13.60
2018-09-09T20:28:40.878Z,13.70
2018-09-09T20:31:09.456Z,13.66
2018-09-09T20:33:37.927Z,13.69
2018-09-09T20:36:06.688Z,13.63
2018-09-09T20:38:35.374Z,13.75
2018-09-09T20:41:04.174Z,13.63
2018-09-09T20:43:32.817Z,13.53
2018-09-09T20:46:01.317Z,13.62
2018-09-09T20:48:30.495Z,13.69
2018-09-09T20:50:59.171Z,13.48
2018-09-09T20:53:27.545Z,13.55
2018-09-09T20:56:02.303Z,13.30
2018-09-09T20:58:30.688Z,13.28
2018-09-09T21:00:59.124Z,13.11
2018-09-09T21:03:27.504Z,13.06
2018-09-09T21:05:58.872Z,13.07
2018-09-09T21:08:27.229Z,12.95
2018-09-09T21:10:55.652Z,12.97
2018-09-09T21:13:24.043Z,12.88
2018-09-09T21:15:52.438Z,12.89
2018-09-09T21:18:20.988Z,12.93
2018-09-09T21:20:49.379Z,13.05
2018-09-09T21:23:17.970Z,12.95
2018-09-09T21:25:46.299Z,12.99
2018-09-09T21:28:14.666Z,12.85
2018-09-09T21:30:55.926Z,12.74
2018-09-09T21:33:24.292Z,12.78
2018-09-09T21:35:52.941Z,12.73
2018-09-09T21:38:21.302Z,12.75
2018-09-09T21:40:49.794Z,12.67
2018-09-09T21:43:18.242Z,12.56
2018-09-09T21:45:49.410Z,12.51
2018-09-09T21:48:17.790Z,12.63
2018-09-09T21:50:46.920Z,12.63
2018-09-09T21:53:15.364Z,12.68
2018-09-09T21:55:43.814Z,12.61
2018-09-09T21:58:12.148Z,12.43
2018-09-09T22:00:45.927Z,12.40
2018-09-09T22:03:14.453Z,12.25
2018-09-09T22:05:42.855Z,12.30
2018-09-09T22:08:11.244Z,12.30
2018-09-09T22:10:39.611Z,12.24
2018-09-09T22:13:08.064Z,12.40
2018-09-09T22:15:36.408Z,12.33
2018-09-09T22:18:04.736Z,12.49
2018-09-09T22:20:33.114Z,12.30
2018-09-09T22:23:01.482Z,12.09
2018-09-09T22:25:30.000Z,12.03
2018-09-09T22:27:58.427Z,12.08
2018-09-09T22:30:26.934Z,11.87
2018-09-09T22:32:55.384Z,11.94
2018-09-09T22:35:23.742Z,11.99
2018-09-09T22:37:52.129Z,12.04
2018-09-09T22:40:20.543Z,11.81
2018-09-09T22:42:49.037Z,11.65
2018-09-09T22:45:17.448Z,11.51
2018-09-09T22:47:45.830Z,11.61
2018-09-09T22:50:14.215Z,11.68
2018-09-09T22:52:42.719Z,11.74
2018-09-09T22:55:11.291Z,11.80
2018-09-09T22:57:39.615Z,11.80
2018-09-09T23:00:08.276Z,11.75
2018-09-09T23:02:36.638Z,11.74
2018-09-09T23:05:05.019Z,11.47
2018-09-09T23:07:33.360Z,11.42
2018-09-09T23:10:01.763Z,11.40
2018-09-09T23:12:36.780Z,11.36
2018-09-09T23:16:29.738Z,11.44
2018-09-09T23:18:58.078Z,11.35
2018-09-09T23:21:26.431Z,11.36
2018-09-09T23:23:54.843Z,11.44
2018-09-09T23:26:23.205Z,11.08
2018-09-09T23:28:51.547Z,11.13
2018-09-09T23:31:19.965Z,11.13
2018-09-09T23:33:48.431Z,11.28
2018-09-09T23:36:16.879Z,11.27
2018-09-09T23:38:45.217Z,11.17
2018-09-09T23:41:13.552Z,10.96
2018-09-09T23:43:41.920Z,10.93
2018-09-09T23:46:11.215Z,11.00
2018-09-09T23:48:39.595Z,10.87
2018-09-09T23:51:07.958Z,10.98
2018-09-09T23:53:36.542Z,10.78
2018-09-09T23:56:04.936Z,10.78
2018-09-09T23:58:33.312Z,10.60
